sensor_id;sensor_type;location;lat;lon;timestamp;pressure;altitude;pressure_sealevel;temperature;humidity
44974;BME280;60981;50.720;11.342;2023-07-02T00:00:33;99799.78;;;18.51;69.18
44974;BME280;60981;50.720;11.342;2023-07-02T00:01:36;99792.59;;;18.57;68.62
44974;BME280;60981;50.720;11.342;2023-07-02T00:02:42;99804.66;;;18.55;69.05
44974;BME280;60981;50.720;11.342;2023-07-02T00:03:45;99783.34;;;18.48;68.66
44974;BME280;60981;50.720;11.342;2023-07-02T00:04:48;99792.69;;;18.40;69.33
44974;BME280;60981;50.720;11.342;2023-07-02T00:05:53;99731.09;;;18.44;69.08
44974;BME280;60981;50.720;11.342;2023-07-02T00:06:57;99747.50;;;18.42;68.78
44974;BME280;60981;50.720;11.342;2023-07-02T00:08:03;99718.63;;;18.33;69.29
44974;BME280;60981;50.720;11.342;2023-07-02T00:09:07;99730.19;;;18.33;69.32
44974;BME280;60981;50.720;11.342;2023-07-02T00:10:10;99694.34;;;18.28;69.40
44974;BME280;60981;50.720;11.342;2023-07-02T00:11:15;99706.22;;;18.32;69.33
44974;BME280;60981;50.720;11.342;2023-07-02T00:12:18;99701.88;;;18.26;69.51
44974;BME280;60981;50.720;11.342;2023-07-02T00:13:23;99725.44;;;18.13;69.74
44974;BME280;60981;50.720;11.342;2023-07-02T00:14:26;99699.91;;;18.16;70.01
44974;BME280;60981;50.720;11.342;2023-07-02T00:15:29;99657.38;;;18.13;70.17
44974;BME280;60981;50.720;11.342;2023-07-02T00:16:35;99702.53;;;18.11;70.05
44974;BME280;60981;50.720;11.342;2023-07-02T00:17:38;99681.78;;;18.06;70.59
44974;BME280;60981;50.720;11.342;2023-07-02T00:18:43;99730.50;;;18.10;70.43
44974;BME280;60981;50.720;11.342;2023-07-02T00:19:46;99697.41;;;18.09;70.33
44974;BME280;60981;50.720;11.342;2023-07-02T00:20:50;99700.91;;;18.10;70.38
44974;BME280;60981;50.720;11.342;2023-07-02T00:21:53;99762.53;;;18.11;70.56
44974;BME280;60981;50.720;11.342;2023-07-02T00:22:57;99739.69;;;18.14;70.43
44974;BME280;60981;50.720;11.342;2023-07-02T00:24:03;99699.84;;;18.11;70.29
44974;BME280;60981;50.720;11.342;2023-07-02T00:25:06;99740.72;;;18.08;70.48
44974;BME280;60981;50.720;11.342;2023-07-02T00:26:09;99698.44;;;18.03;70.41
44974;BME280;60981;50.720;11.342;2023-07-02T00:27:15;99656.75;;;18.06;70.20
44974;BME280;60981;50.720;11.342;2023-07-02T00:28:18;99603.53;;;18.08;70.44
44974;BME280;60981;50.720;11.342;2023-07-02T00:29:21;99662.19;;;18.11;70.47
44974;BME280;60981;50.720;11.342;2023-07-02T00:30:24;99616.41;;;18.06;70.48
44974;BME280;60981;50.720;11.342;2023-07-02T00:31:29;99622.06;;;18.04;70.51
44974;BME280;60981;50.720;11.342;2023-07-02T00:32:36;99635.09;;;17.91;70.64
44974;BME280;60981;50.720;11.342;2023-07-02T00:33:37;99624.19;;;18.02;70.74
44974;BME280;60981;50.720;11.342;2023-07-02T00:34:39;99669.69;;;18.09;70.54
44974;BME280;60981;50.720;11.342;2023-07-02T00:35:41;99622.91;;;18.10;70.82
44974;BME280;60981;50.720;11.342;2023-07-02T00:36:45;99645.50;;;18.09;70.29
44974;BME280;60981;50.720;11.342;2023-07-02T00:37:51;99660.00;;;18.08;70.00
44974;BME280;60981;50.720;11.342;2023-07-02T00:38:53;99618.09;;;18.12;69.91
44974;BME280;60981;50.720;11.342;2023-07-02T00:39:57;99637.16;;;18.10;70.29
44974;BME280;60981;50.720;11.342;2023-07-02T00:41:00;99644.97;;;18.12;70.11
44974;BME280;60981;50.720;11.342;2023-07-02T00:42:04;99661.53;;;17.99;70.15
44974;BME280;60981;50.720;11.342;2023-07-02T00:43:09;99634.72;;;18.09;69.76
44974;BME280;60981;50.720;11.342;2023-07-02T00:44:17;99632.66;;;18.16;69.67
44974;BME280;60981;50.720;11.342;2023-07-02T00:45:25;99617.53;;;18.10;69.59
44974;BME280;60981;50.720;11.342;2023-07-02T00:46:28;99534.09;;;18.05;69.81
44974;BME280;60981;50.720;11.342;2023-07-02T00:47:35;99550.88;;;18.17;69.68
44974;BME280;60981;50.720;11.342;2023-07-02T00:48:39;99570.78;;;18.16;69.71
44974;BME280;60981;50.720;11.342;2023-07-02T00:49:43;99562.69;;;18.16;69.38
44974;BME280;60981;50.720;11.342;2023-07-02T00:50:49;99580.72;;;18.15;69.28
44974;BME280;60981;50.720;11.342;2023-07-02T00:51:55;99618.38;;;18.15;69.13
44974;BME280;60981;50.720;11.342;2023-07-02T00:53:00;99614.16;;;18.25;68.93
44974;BME280;60981;50.720;11.342;2023-07-02T00:54:06;99662.31;;;18.26;69.12
44974;BME280;60981;50.720;11.342;2023-07-02T00:55:08;99721.22;;;18.23;69.20
44974;BME280;60981;50.720;11.342;2023-07-02T00:56:17;99714.25;;;18.27;69.41
44974;BME280;60981;50.720;11.342;2023-07-02T00:57:20;99649.34;;;18.18;69.35
44974;BME280;60981;50.720;11.342;2023-07-02T00:58:24;99676.63;;;18.32;69.63
44974;BME280;60981;50.720;11.342;2023-07-02T00:59:29;99678.97;;;18.23;69.58
44974;BME280;60981;50.720;11.342;2023-07-02T01:00:38;99728.31;;;18.34;69.72
44974;BME280;60981;50.720;11.342;2023-07-02T01:01:41;99702.16;;;18.29;69.33
44974;BME280;60981;50.720;11.342;2023-07-02T01:02:53;99719.44;;;18.33;69.75
44974;BME280;60981;50.720;11.342;2023-07-02T01:04:07;99695.47;;;18.32;69.89
44974;BME280;60981;50.720;11.342;2023-07-02T01:05:16;99741.75;;;18.34;69.84
44974;BME280;60981;50.720;11.342;2023-07-02T01:06:29;99748.53;;;18.36;69.52
44974;BME280;60981;50.720;11.342;2023-07-02T01:07:39;99666.72;;;18.37;69.29
44974;BME280;60981;50.720;11.342;2023-07-02T01:08:44;99628.53;;;18.40;69.38
44974;BME280;60981;50.720;11.342;2023-07-02T01:09:46;99661.88;;;18.39;68.95
44974;BME280;60981;50.720;11.342;2023-07-02T01:10:48;99709.31;;;18.45;68.75
44974;BME280;60981;50.720;11.342;2023-07-02T01:11:54;99711.44;;;18.43;68.53
44974;BME280;60981;50.720;11.342;2023-07-02T01:13:17;99663.81;;;18.44;68.75
44974;BME280;60981;50.720;11.342;2023-07-02T01:14:31;99647.97;;;18.47;68.74
44974;BME280;60981;50.720;11.342;2023-07-02T01:15:35;99718.97;;;18.41;68.63
44974;BME280;60981;50.720;11.342;2023-07-02T01:16:49;99686.97;;;18.45;68.51
44974;BME280;60981;50.720;11.342;2023-07-02T01:17:56;99703.88;;;18.40;68.26
44974;BME280;60981;50.720;11.342;2023-07-02T01:19:02;99701.22;;;18.45;68.33
44974;BME280;60981;50.720;11.342;2023-07-02T01:20:09;99769.59;;;18.44;68.47
44974;BME280;60981;50.720;11.342;2023-07-02T01:21:14;99672.91;;;18.38;68.62
44974;BME280;60981;50.720;11.342;2023-07-02T01:22:24;99708.50;;;18.45;68.61
44974;BME280;60981;50.720;11.342;2023-07-02T01:23:30;99746.94;;;18.40;68.27
44974;BME280;60981;50.720;11.342;2023-07-02T01:24:34;99671.31;;;18.42;67.87
44974;BME280;60981;50.720;11.342;2023-07-02T01:25:39;99715.00;;;18.49;67.96
44974;BME280;60981;50.720;11.342;2023-07-02T01:26:41;99684.56;;;18.48;67.99
44974;BME280;60981;50.720;11.342;2023-07-02T01:27:44;99796.34;;;18.56;67.87
44974;BME280;60981;50.720;11.342;2023-07-02T01:28:50;99785.44;;;18.41;67.87
44974;BME280;60981;50.720;11.342;2023-07-02T01:29:57;99784.97;;;18.49;67.93
44974;BME280;60981;50.720;11.342;2023-07-02T01:31:00;99766.16;;;18.54;68.14
44974;BME280;60981;50.720;11.342;2023-07-02T01:32:05;99790.66;;;18.52;67.82
44974;BME280;60981;50.720;11.342;2023-07-02T01:33:12;99751.09;;;18.53;68.04
44974;BME280;60981;50.720;11.342;2023-07-02T01:34:16;99715.81;;;18.49;67.75
44974;BME280;60981;50.720;11.342;2023-07-02T01:35:22;99702.63;;;18.53;68.00
44974;BME280;60981;50.720;11.342;2023-07-02T01:36:26;99711.75;;;18.47;68.22
44974;BME280;60981;50.720;11.342;2023-07-02T01:37:29;99744.81;;;18.42;68.00
44974;BME280;60981;50.720;11.342;2023-07-02T01:38:42;99738.44;;;18.54;67.93
44974;BME280;60981;50.720;11.342;2023-07-02T01:39:51;99777.72;;;18.49;67.83
44974;BME280;60981;50.720;11.342;2023-07-02T01:40:55;99764.25;;;18.49;67.43
44974;BME280;60981;50.720;11.342;2023-07-02T01:42:12;99766.69;;;18.51;67.43
44974;BME280;60981;50.720;11.342;2023-07-02T01:43:25;99744.03;;;18.47;67.89
44974;BME280;60981;50.720;11.342;2023-07-02T01:44:28;99693.44;;;18.49;67.79
44974;BME280;60981;50.720;11.342;2023-07-02T01:45:31;99748.59;;;18.46;67.92
44974;BME280;60981;50.720;11.342;2023-07-02T01:46:37;99747.41;;;18.32;67.99
44974;BME280;60981;50.720;11.342;2023-07-02T01:47:43;99804.56;;;18.44;68.07
44974;BME280;60981;50.720;11.342;2023-07-02T01:48:49;99769.03;;;18.42;67.75
44974;BME280;60981;50.720;11.342;2023-07-02T01:49:55;99792.84;;;18.29;67.86
44974;BME280;60981;50.720;11.342;2023-07-02T01:51:00;99711.06;;;18.30;67.86
44974;BME280;60981;50.720;11.342;2023-07-02T01:52:08;99891.72;;;18.38;68.13
44974;BME280;60981;50.720;11.342;2023-07-02T01:53:14;99832.25;;;18.40;68.13
44974;BME280;60981;50.720;11.342;2023-07-02T01:54:30;99744.84;;;18.47;67.96
44974;BME280;60981;50.720;11.342;2023-07-02T01:55:37;99752.56;;;18.39;67.80
44974;BME280;60981;50.720;11.342;2023-07-02T01:56:43;99730.31;;;18.48;67.50
44974;BME280;60981;50.720;11.342;2023-07-02T01:57:48;99795.69;;;18.44;67.49
44974;BME280;60981;50.720;11.342;2023-07-02T01:58:51;99857.59;;;18.44;67.70
44974;BME280;60981;50.720;11.342;2023-07-02T01:59:56;99926.25;;;18.46;67.79
44974;BME280;60981;50.720;11.342;2023-07-02T02:00:58;99842.81;;;18.46;68.26
44974;BME280;60981;50.720;11.342;2023-07-02T02:02:07;99825.59;;;18.47;68.08
44974;BME280;60981;50.720;11.342;2023-07-02T02:03:11;99854.69;;;18.50;68.56
44974;BME280;60981;50.720;11.342;2023-07-02T02:04:15;99886.75;;;18.52;68.77
44974;BME280;60981;50.720;11.342;2023-07-02T02:05:24;99917.16;;;18.52;68.34
44974;BME280;60981;50.720;11.342;2023-07-02T02:06:27;99882.94;;;18.48;69.18
44974;BME280;60981;50.720;11.342;2023-07-02T02:07:33;99852.00;;;18.50;69.13
44974;BME280;60981;50.720;11.342;2023-07-02T02:08:44;99776.63;;;18.50;69.85
44974;BME280;60981;50.720;11.342;2023-07-02T02:09:50;99779.59;;;18.49;70.22
44974;BME280;60981;50.720;11.342;2023-07-02T02:10:55;99752.66;;;18.49;70.34
44974;BME280;60981;50.720;11.342;2023-07-02T02:11:59;99755.06;;;18.45;69.99
44974;BME280;60981;50.720;11.342;2023-07-02T02:13:04;99732.31;;;18.31;70.21
44974;BME280;60981;50.720;11.342;2023-07-02T02:14:09;99745.06;;;18.41;70.05
44974;BME280;60981;50.720;11.342;2023-07-02T02:15:12;99742.03;;;18.32;70.36
44974;BME280;60981;50.720;11.342;2023-07-02T02:16:21;99723.22;;;18.37;70.44
44974;BME280;60981;50.720;11.342;2023-07-02T02:17:27;99733.41;;;18.30;70.03
44974;BME280;60981;50.720;11.342;2023-07-02T02:18:33;99760.00;;;18.27;70.77
44974;BME280;60981;50.720;11.342;2023-07-02T02:19:36;99685.84;;;18.41;70.07
44974;BME280;60981;50.720;11.342;2023-07-02T02:20:41;99720.84;;;18.41;70.63
44974;BME280;60981;50.720;11.342;2023-07-02T02:21:50;99710.03;;;18.36;70.50
44974;BME280;60981;50.720;11.342;2023-07-02T02:22:56;99764.91;;;18.35;70.37
44974;BME280;60981;50.720;11.342;2023-07-02T02:24:01;99716.72;;;18.33;70.40
44974;BME280;60981;50.720;11.342;2023-07-02T02:25:05;99726.13;;;18.31;70.04
44974;BME280;60981;50.720;11.342;2023-07-02T02:26:14;99749.53;;;18.30;70.18
44974;BME280;60981;50.720;11.342;2023-07-02T02:27:18;99752.22;;;18.30;70.61
44974;BME280;60981;50.720;11.342;2023-07-02T02:28:21;99719.63;;;18.27;70.74
44974;BME280;60981;50.720;11.342;2023-07-02T02:29:27;99725.31;;;18.30;70.79
44974;BME280;60981;50.720;11.342;2023-07-02T02:30:31;99731.47;;;18.26;69.99
44974;BME280;60981;50.720;11.342;2023-07-02T02:31:34;99758.41;;;18.31;70.48
44974;BME280;60981;50.720;11.342;2023-07-02T02:32:39;99749.22;;;18.27;70.26
44974;BME280;60981;50.720;11.342;2023-07-02T02:33:46;99790.16;;;18.29;70.02
44974;BME280;60981;50.720;11.342;2023-07-02T02:34:51;99755.38;;;18.22;70.34
44974;BME280;60981;50.720;11.342;2023-07-02T02:35:54;99768.78;;;18.17;70.20
44974;BME280;60981;50.720;11.342;2023-07-02T02:36:59;99726.25;;;18.14;70.22
44974;BME280;60981;50.720;11.342;2023-07-02T02:38:04;99696.03;;;18.07;70.02
44974;BME280;60981;50.720;11.342;2023-07-02T02:39:07;99704.13;;;18.07;70.71
44974;BME280;60981;50.720;11.342;2023-07-02T02:40:12;99658.34;;;18.02;70.58
44974;BME280;60981;50.720;11.342;2023-07-02T02:41:16;99686.31;;;18.01;70.70
44974;BME280;60981;50.720;11.342;2023-07-02T02:42:17;99689.44;;;17.93;70.44
44974;BME280;60981;50.720;11.342;2023-07-02T02:43:30;99713.72;;;17.98;70.92
44974;BME280;60981;50.720;11.342;2023-07-02T02:44:34;99700.47;;;17.91;70.84
44974;BME280;60981;50.720;11.342;2023-07-02T02:45:40;99650.19;;;17.92;71.13
44974;BME280;60981;50.720;11.342;2023-07-02T02:46:44;99683.22;;;17.87;70.75
44974;BME280;60981;50.720;11.342;2023-07-02T02:47:50;99775.81;;;17.96;70.73
44974;BME280;60981;50.720;11.342;2023-07-02T02:48:53;99720.91;;;17.92;70.77
44974;BME280;60981;50.720;11.342;2023-07-02T02:49:56;99697.22;;;17.89;70.84
44974;BME280;60981;50.720;11.342;2023-07-02T02:50:58;99777.63;;;17.91;71.03
44974;BME280;60981;50.720;11.342;2023-07-02T02:52:05;99783.50;;;17.88;71.08
44974;BME280;60981;50.720;11.342;2023-07-02T02:53:11;99729.94;;;17.81;71.06
44974;BME280;60981;50.720;11.342;2023-07-02T02:54:16;99769.19;;;17.82;71.07
44974;BME280;60981;50.720;11.342;2023-07-02T02:55:18;99841.78;;;17.82;71.21
44974;BME280;60981;50.720;11.342;2023-07-02T02:56:21;99766.13;;;17.73;71.11
44974;BME280;60981;50.720;11.342;2023-07-02T02:57:25;99799.53;;;17.77;71.17
44974;BME280;60981;50.720;11.342;2023-07-02T02:58:28;99745.88;;;17.88;71.50
44974;BME280;60981;50.720;11.342;2023-07-02T02:59:31;99791.78;;;17.81;71.31
44974;BME280;60981;50.720;11.342;2023-07-02T03:00:33;99794.28;;;17.88;71.26
44974;BME280;60981;50.720;11.342;2023-07-02T03:01:39;99776.31;;;17.71;71.27
44974;BME280;60981;50.720;11.342;2023-07-02T03:02:43;99761.50;;;17.91;71.62
44974;BME280;60981;50.720;11.342;2023-07-02T03:03:47;99782.13;;;17.85;71.53
44974;BME280;60981;50.720;11.342;2023-07-02T03:04:52;99720.28;;;17.85;71.55
44974;BME280;60981;50.720;11.342;2023-07-02T03:05:58;99776.38;;;17.76;71.53
44974;BME280;60981;50.720;11.342;2023-07-02T03:07:01;99698.75;;;17.63;71.29
44974;BME280;60981;50.720;11.342;2023-07-02T03:08:08;99754.56;;;17.73;71.85
44974;BME280;60981;50.720;11.342;2023-07-02T03:09:13;99864.78;;;17.73;71.67
44974;BME280;60981;50.720;11.342;2023-07-02T03:10:15;99767.69;;;17.69;71.78
44974;BME280;60981;50.720;11.342;2023-07-02T03:11:20;99735.00;;;17.61;71.70
44974;BME280;60981;50.720;11.342;2023-07-02T03:12:31;99751.13;;;17.61;71.91
44974;BME280;60981;50.720;11.342;2023-07-02T03:13:36;99803.25;;;17.60;71.72
44974;BME280;60981;50.720;11.342;2023-07-02T03:14:41;99833.34;;;17.73;71.92
44974;BME280;60981;50.720;11.342;2023-07-02T03:15:44;99785.44;;;17.70;72.09
44974;BME280;60981;50.720;11.342;2023-07-02T03:16:49;99790.00;;;17.70;71.94
44974;BME280;60981;50.720;11.342;2023-07-02T03:17:54;99739.41;;;17.67;71.78
44974;BME280;60981;50.720;11.342;2023-07-02T03:18:59;99765.56;;;17.71;71.61
44974;BME280;60981;50.720;11.342;2023-07-02T03:20:06;99812.34;;;17.70;71.79
44974;BME280;60981;50.720;11.342;2023-07-02T03:21:13;99754.56;;;17.73;71.62
44974;BME280;60981;50.720;11.342;2023-07-02T03:22:16;99793.53;;;17.70;71.81
44974;BME280;60981;50.720;11.342;2023-07-02T03:23:18;99800.84;;;17.75;71.67
44974;BME280;60981;50.720;11.342;2023-07-02T03:24:24;99755.94;;;17.75;71.53
44974;BME280;60981;50.720;11.342;2023-07-02T03:25:27;99749.19;;;17.73;71.41
44974;BME280;60981;50.720;11.342;2023-07-02T03:26:30;99762.13;;;17.76;71.33
44974;BME280;60981;50.720;11.342;2023-07-02T03:27:37;99736.56;;;17.73;71.63
44974;BME280;60981;50.720;11.342;2023-07-02T03:28:42;99743.31;;;17.76;71.69
44974;BME280;60981;50.720;11.342;2023-07-02T03:29:48;99799.34;;;17.67;71.37
44974;BME280;60981;50.720;11.342;2023-07-02T03:30:53;99764.06;;;17.80;71.26
44974;BME280;60981;50.720;11.342;2023-07-02T03:31:56;99783.94;;;17.79;71.46
44974;BME280;60981;50.720;11.342;2023-07-02T03:33:02;99758.06;;;17.73;71.02
44974;BME280;60981;50.720;11.342;2023-07-02T03:34:11;99724.81;;;17.79;71.13
44974;BME280;60981;50.720;11.342;2023-07-02T03:35:13;99742.44;;;17.70;71.04
44974;BME280;60981;50.720;11.342;2023-07-02T03:36:17;99742.50;;;17.75;70.89
44974;BME280;60981;50.720;11.342;2023-07-02T03:37:21;99752.69;;;17.73;70.92
44974;BME280;60981;50.720;11.342;2023-07-02T03:38:26;99739.81;;;17.75;71.11
44974;BME280;60981;50.720;11.342;2023-07-02T03:39:30;99735.19;;;17.71;71.12
44974;BME280;60981;50.720;11.342;2023-07-02T03:40:33;99752.75;;;17.78;70.64
44974;BME280;60981;50.720;11.342;2023-07-02T03:41:38;99751.38;;;17.76;70.69
44974;BME280;60981;50.720;11.342;2023-07-02T03:42:43;99716.94;;;17.73;70.09
44974;BME280;60981;50.720;11.342;2023-07-02T03:43:49;99808.59;;;17.71;70.39
44974;BME280;60981;50.720;11.342;2023-07-02T03:44:55;99707.00;;;17.56;70.12
44974;BME280;60981;50.720;11.342;2023-07-02T03:46:02;99735.44;;;17.69;70.23
44974;BME280;60981;50.720;11.342;2023-07-02T03:47:06;99742.56;;;17.64;70.51
44974;BME280;60981;50.720;11.342;2023-07-02T03:48:13;99741.38;;;17.71;69.87
44974;BME280;60981;50.720;11.342;2023-07-02T03:49:18;99712.38;;;17.73;70.10
44974;BME280;60981;50.720;11.342;2023-07-02T03:50:24;99705.50;;;17.66;70.03
44974;BME280;60981;50.720;11.342;2023-07-02T03:51:26;99720.44;;;17.73;70.15
44974;BME280;60981;50.720;11.342;2023-07-02T03:52:31;99776.38;;;17.76;69.88
44974;BME280;60981;50.720;11.342;2023-07-02T03:53:45;99708.34;;;17.76;69.50
44974;BME280;60981;50.720;11.342;2023-07-02T03:54:51;99735.66;;;17.68;69.31
44974;BME280;60981;50.720;11.342;2023-07-02T03:55:54;99781.44;;;17.73;69.40
44974;BME280;60981;50.720;11.342;2023-07-02T03:56:58;99819.72;;;17.80;68.88
44974;BME280;60981;50.720;11.342;2023-07-02T03:58:00;99720.69;;;17.72;69.13
44974;BME280;60981;50.720;11.342;2023-07-02T03:59:03;99811.66;;;17.80;68.70
44974;BME280;60981;50.720;11.342;2023-07-02T04:00:07;99801.09;;;17.73;68.37
44974;BME280;60981;50.720;11.342;2023-07-02T04:01:14;99796.84;;;17.77;68.55
44974;BME280;60981;50.720;11.342;2023-07-02T04:02:20;99722.13;;;17.63;68.20
44974;BME280;60981;50.720;11.342;2023-07-02T04:03:25;99738.59;;;17.66;68.75
44974;BME280;60981;50.720;11.342;2023-07-02T04:04:29;99736.31;;;17.75;68.35
44974;BME280;60981;50.720;11.342;2023-07-02T04:05:33;99796.28;;;17.75;68.51
44974;BME280;60981;50.720;11.342;2023-07-02T04:06:36;99734.50;;;17.80;68.20
44974;BME280;60981;50.720;11.342;2023-07-02T04:07:41;99796.03;;;17.77;67.93
44974;BME280;60981;50.720;11.342;2023-07-02T04:08:49;99799.09;;;17.85;68.16
44974;BME280;60981;50.720;11.342;2023-07-02T04:09:54;99831.59;;;17.84;67.82
44974;BME280;60981;50.720;11.342;2023-07-02T04:10:57;99909.97;;;17.93;68.03
44974;BME280;60981;50.720;11.342;2023-07-02T04:12:04;99806.66;;;17.89;67.66
44974;BME280;60981;50.720;11.342;2023-07-02T04:13:10;99797.56;;;17.95;68.25
44974;BME280;60981;50.720;11.342;2023-07-02T04:14:15;99845.75;;;17.96;67.77
44974;BME280;60981;50.720;11.342;2023-07-02T04:15:18;99838.41;;;17.92;67.67
44974;BME280;60981;50.720;11.342;2023-07-02T04:16:22;99810.28;;;17.99;67.75
44974;BME280;60981;50.720;11.342;2023-07-02T04:17:29;99811.09;;;18.00;67.20
44974;BME280;60981;50.720;11.342;2023-07-02T04:18:34;99812.22;;;17.82;67.16
44974;BME280;60981;50.720;11.342;2023-07-02T04:19:39;99803.78;;;17.95;67.34
44974;BME280;60981;50.720;11.342;2023-07-02T04:20:40;99866.13;;;17.92;67.34
44974;BME280;60981;50.720;11.342;2023-07-02T04:21:42;99835.91;;;18.07;67.47
44974;BME280;60981;50.720;11.342;2023-07-02T04:22:51;99839.41;;;18.07;67.07
44974;BME280;60981;50.720;11.342;2023-07-02T04:23:54;99848.81;;;18.05;66.99
44974;BME280;60981;50.720;11.342;2023-07-02T04:25:03;99830.34;;;18.13;67.20
44974;BME280;60981;50.720;11.342;2023-07-02T04:26:28;99883.03;;;18.09;66.89
44974;BME280;60981;50.720;11.342;2023-07-02T04:27:57;100001.69;;;18.13;66.97
44974;BME280;60981;50.720;11.342;2023-07-02T04:29:02;99960.28;;;18.14;66.69
44974;BME280;60981;50.720;11.342;2023-07-02T04:30:08;99931.63;;;18.03;66.60
44974;BME280;60981;50.720;11.342;2023-07-02T04:31:14;99861.19;;;18.06;66.57
44974;BME280;60981;50.720;11.342;2023-07-02T04:32:17;100036.34;;;18.09;66.83
44974;BME280;60981;50.720;11.342;2023-07-02T04:33:21;99969.19;;;18.14;66.92
44974;BME280;60981;50.720;11.342;2023-07-02T04:34:26;99968.44;;;18.19;66.44
44974;BME280;60981;50.720;11.342;2023-07-02T04:35:32;99940.41;;;18.15;66.25
44974;BME280;60981;50.720;11.342;2023-07-02T04:36:38;99968.75;;;18.23;66.20
44974;BME280;60981;50.720;11.342;2023-07-02T04:37:40;100001.84;;;18.23;66.11
44974;BME280;60981;50.720;11.342;2023-07-02T04:38:45;100056.22;;;18.25;65.47
44974;BME280;60981;50.720;11.342;2023-07-02T04:39:49;100142.25;;;18.20;65.37
44974;BME280;60981;50.720;11.342;2023-07-02T04:40:54;100032.50;;;18.22;65.14
44974;BME280;60981;50.720;11.342;2023-07-02T04:42:01;100069.94;;;18.24;65.37
44974;BME280;60981;50.720;11.342;2023-07-02T04:43:06;100134.59;;;18.12;65.14
44974;BME280;60981;50.720;11.342;2023-07-02T04:44:10;100058.59;;;18.22;65.05
44974;BME280;60981;50.720;11.342;2023-07-02T04:45:15;100086.16;;;18.29;64.35
44974;BME280;60981;50.720;11.342;2023-07-02T04:46:21;100010.31;;;18.32;63.71
44974;BME280;60981;50.720;11.342;2023-07-02T04:47:27;99936.91;;;18.36;63.72
44974;BME280;60981;50.720;11.342;2023-07-02T04:48:30;99925.94;;;18.21;63.98
44974;BME280;60981;50.720;11.342;2023-07-02T04:49:34;100080.34;;;18.37;63.07
44974;BME280;60981;50.720;11.342;2023-07-02T04:50:50;100169.16;;;18.37;62.75
44974;BME280;60981;50.720;11.342;2023-07-02T04:51:56;100130.66;;;18.36;62.50
44974;BME280;60981;50.720;11.342;2023-07-02T04:53:01;100205.53;;;18.39;63.04
44974;BME280;60981;50.720;11.342;2023-07-02T04:54:07;100258.22;;;18.35;62.17
44974;BME280;60981;50.720;11.342;2023-07-02T04:55:10;100187.44;;;18.35;62.54
44974;BME280;60981;50.720;11.342;2023-07-02T04:56:15;100231.25;;;18.47;62.64
44974;BME280;60981;50.720;11.342;2023-07-02T04:57:19;100269.81;;;18.52;62.40
44974;BME280;60981;50.720;11.342;2023-07-02T04:58:22;100391.88;;;18.58;62.57
44974;BME280;60981;50.720;11.342;2023-07-02T04:59:28;100474.19;;;18.66;62.22
44974;BME280;60981;50.720;11.342;2023-07-02T05:00:31;100401.84;;;18.58;61.85
44974;BME280;60981;50.720;11.342;2023-07-02T05:01:35;100443.75;;;18.65;62.10
44974;BME280;60981;50.720;11.342;2023-07-02T05:02:40;100517.16;;;18.72;61.38
44974;BME280;60981;50.720;11.342;2023-07-02T05:03:46;100423.13;;;18.71;61.67
44974;BME280;60981;50.720;11.342;2023-07-02T05:04:49;100504.16;;;18.81;61.27
44974;BME280;60981;50.720;11.342;2023-07-02T05:05:54;100478.03;;;18.81;61.29
44974;BME280;60981;50.720;11.342;2023-07-02T05:07:03;100659.78;;;18.91;60.71
44974;BME280;60981;50.720;11.342;2023-07-02T05:08:15;100596.53;;;18.93;60.58
44974;BME280;60981;50.720;11.342;2023-07-02T05:09:22;100688.47;;;18.97;60.56
44974;BME280;60981;50.720;11.342;2023-07-02T05:10:26;100684.00;;;19.02;60.41
44974;BME280;60981;50.720;11.342;2023-07-02T05:11:30;100754.53;;;18.99;60.15
44974;BME280;60981;50.720;11.342;2023-07-02T05:12:34;100745.50;;;19.05;60.52
44974;BME280;60981;50.720;11.342;2023-07-02T05:13:37;100567.81;;;18.99;59.74
44974;BME280;60981;50.720;11.342;2023-07-02T05:14:40;100624.47;;;19.16;59.82
44974;BME280;60981;50.720;11.342;2023-07-02T05:15:42;100712.00;;;19.13;59.43
44974;BME280;60981;50.720;11.342;2023-07-02T05:16:46;100770.69;;;19.23;59.45
44974;BME280;60981;50.720;11.342;2023-07-02T05:17:49;100812.41;;;19.32;59.31
44974;BME280;60981;50.720;11.342;2023-07-02T05:18:55;100823.91;;;19.39;59.02
44974;BME280;60981;50.720;11.342;2023-07-02T05:20:02;100804.78;;;19.40;58.59
44974;BME280;60981;50.720;11.342;2023-07-02T05:21:06;100780.63;;;19.45;58.58
44974;BME280;60981;50.720;11.342;2023-07-02T05:22:12;100717.06;;;19.50;58.14
44974;BME280;60981;50.720;11.342;2023-07-02T05:23:22;100778.75;;;19.46;57.91
44974;BME280;60981;50.720;11.342;2023-07-02T05:24:27;100942.34;;;19.52;58.03
44974;BME280;60981;50.720;11.342;2023-07-02T05:25:31;100782.84;;;19.60;57.89
44974;BME280;60981;50.720;11.342;2023-07-02T05:26:36;100794.00;;;19.64;57.33
44974;BME280;60981;50.720;11.342;2023-07-02T05:27:39;100821.78;;;19.64;57.02
44974;BME280;60981;50.720;11.342;2023-07-02T05:28:44;100718.81;;;19.67;56.91
44974;BME280;60981;50.720;11.342;2023-07-02T05:29:55;100630.53;;;19.63;57.00
44974;BME280;60981;50.720;11.342;2023-07-02T05:31:00;100749.53;;;19.78;56.79
44974;BME280;60981;50.720;11.342;2023-07-02T05:32:06;100605.72;;;19.77;56.29
44974;BME280;60981;50.720;11.342;2023-07-02T05:33:09;100613.91;;;19.83;56.06
44974;BME280;60981;50.720;11.342;2023-07-02T05:34:16;100688.75;;;19.75;56.14
44974;BME280;60981;50.720;11.342;2023-07-02T05:35:22;100738.84;;;19.83;56.38
44974;BME280;60981;50.720;11.342;2023-07-02T05:36:29;100602.31;;;19.82;56.56
44974;BME280;60981;50.720;11.342;2023-07-02T05:37:35;100619.88;;;19.85;55.97
44974;BME280;60981;50.720;11.342;2023-07-02T05:38:39;100559.03;;;19.77;56.33
44974;BME280;60981;50.720;11.342;2023-07-02T05:39:41;100565.97;;;19.73;56.66
44974;BME280;60981;50.720;11.342;2023-07-02T05:40:45;100475.75;;;19.81;56.31